Time;durP1;ratioP1;P1;durP2;ratioP2;P2;SDS_P1;SDS_P2;PMS_P1;PMS_P2;Temp;Humidity;BMP_temperature;BMP_pressure;BME280_temperature;BME280_humidity;BME280_pressure;Samples;Min_cycle;Max_cycle;Signal;HPM_P1;HPM_P2
2022/06/04 00:00:39;;;;;;;5.37;4.60;;;21.30;93.60;;;21.79;59.93;98628.00;4861976;28;113058;-93
2022/06/04 00:03:07;;;;;;;4.83;4.33;;;21.20;93.50;;;21.81;59.84;98624.78;4863927;28;112362;-91
2022/06/04 00:05:43;;;;;;;5.10;4.43;;;21.30;93.60;;;21.79;59.70;98627.19;4878456;28;124206;-93
2022/06/04 00:08:11;;;;;;;5.13;4.40;;;21.30;93.60;;;21.77;60.23;98621.13;4864110;28;122141;-92
2022/06/04 00:16:48;;;;;;;5.90;4.80;;;21.20;93.70;;;21.71;60.24;98605.81;4857852;29;124015;-93
2022/06/04 00:19:20;;;;;;;4.10;3.70;;;21.20;93.70;;;21.70;60.32;98612.66;4865674;28;123237;-92
2022/06/04 00:21:48;;;;;;;4.83;4.43;;;21.20;93.70;;;21.69;60.08;98611.03;4859175;29;115253;-92
2022/06/04 00:24:16;;;;;;;4.93;4.53;;;21.20;93.70;;;21.69;60.05;98627.91;4858079;29;114173;-92
2022/06/04 00:27:03;;;;;;;5.13;4.30;;;21.10;93.70;;;21.66;60.38;98639.94;4857219;28;123193;-92
2022/06/04 00:29:53;;;;;;;4.93;4.53;;;21.20;93.70;;;21.62;60.19;98632.28;4846870;29;123815;-91
2022/06/04 00:33:16;;;;;;;5.63;4.53;;;21.10;93.70;;;21.57;60.20;98621.41;4867068;28;114082;-92
2022/06/04 00:35:46;;;;;;;4.93;4.53;;;21.10;93.70;;;21.55;60.46;98618.19;4859526;28;113496;-91
2022/06/04 00:38:35;;;;;;;4.60;4.17;;;21.10;93.80;;;21.54;60.21;98627.00;4860383;28;124788;-92
2022/06/04 00:41:45;;;;;;;5.20;4.70;;;21.00;93.80;;;21.47;60.42;98616.50;4872430;28;123244;-92
2022/06/04 00:44:13;;;;;;;5.20;4.57;;;21.00;93.80;;;21.47;60.60;98610.91;4863310;28;113098;-93
2022/06/04 00:46:40;;;;;;;5.20;4.70;;;21.00;93.90;;;21.46;60.58;98614.88;4858441;29;113105;-93
2022/06/04 00:49:17;;;;;;;5.67;5.00;;;20.90;93.80;;;21.44;60.43;98608.88;4858094;29;124623;-93
2022/06/04 00:52:08;;;;;;;5.43;4.93;;;20.90;93.80;;;21.40;60.40;98608.81;4874413;28;122865;-92
2022/06/04 00:54:36;;;;;;;4.60;4.20;;;20.90;93.80;;;21.39;60.17;98610.03;4861040;28;114108;-92
2022/06/04 00:57:37;;;;;;;4.50;4.10;;;20.90;94.10;;;21.37;60.29;98611.59;4866567;28;113750;-92
2022/06/04 01:00:19;;;;;;;4.97;4.53;;;20.90;93.80;;;21.38;60.32;98621.66;4858209;28;123657;-93
2022/06/04 01:03:10;;;;;;;7.03;4.37;;;20.80;93.80;;;21.35;60.14;98620.38;4858673;28;122402;-92
2022/06/04 01:06:10;;;;;;;5.20;4.60;;;20.80;93.80;;;21.32;60.26;98614.75;4854990;29;113558;-93
2022/06/04 01:09:12;;;;;;;5.13;4.63;;;20.80;93.80;;;21.29;60.34;98621.16;4873488;28;111984;-88
2022/06/04 01:12:16;;;;;;;7.57;4.77;;;20.80;93.90;;;21.26;60.25;98621.94;4858195;29;124063;-93
2022/06/04 01:15:11;;;;;;;5.00;4.60;;;20.80;93.90;;;21.24;60.44;98621.50;4872436;29;123341;-94
2022/06/04 01:22:20;;;;;;;7.00;4.57;;;20.70;94.00;;;21.17;60.96;98631.50;4878648;28;115394;-93
2022/06/04 01:25:12;;;;;;;4.80;4.37;;;20.70;94.00;;;21.16;60.82;98620.63;4831614;28;123606;-92
2022/06/04 01:28:36;;;;;;;5.40;4.90;;;20.70;94.10;;;21.10;60.72;98625.00;4867980;28;123301;-93
2022/06/04 01:31:44;;;;;;;6.30;5.70;;;20.60;94.10;;;21.00;61.15;98629.31;4867477;28;114225;-93
2022/06/04 01:35:02;;;;;;;5.60;5.10;;;20.60;94.20;;;20.96;60.97;98623.66;4866127;28;112362;-91
2022/06/04 01:38:00;;;;;;;5.70;5.10;;;20.50;94.20;;;20.96;61.45;98626.47;4877796;28;122339;-94
2022/06/04 01:41:05;;;;;;;5.60;5.10;;;20.50;94.30;;;20.96;61.39;98637.72;4858539;28;123053;-92
2022/06/04 01:43:52;;;;;;;5.40;4.90;;;20.50;94.40;;;20.98;61.28;98642.13;4867238;29;113879;-92
2022/06/04 01:46:59;;;;;;;5.33;4.83;;;20.40;94.40;;;20.97;61.15;98635.72;4867987;28;113687;-92
2022/06/04 01:49:49;;;;;;;5.13;4.67;;;20.40;94.40;;;20.96;61.16;98639.72;4873192;28;123412;-92
2022/06/04 01:52:26;;;;;;;6.00;5.40;;;20.40;94.30;;;20.95;61.30;98641.72;4872814;28;123293;-93
2022/06/04 01:55:16;;;;;;;4.73;4.33;;;20.40;94.30;;;20.95;61.12;98640.91;4855831;29;112511;-93
2022/06/04 01:58:05;;;;;;;5.70;5.10;;;20.40;94.30;;;20.91;60.75;98626.84;4860845;28;113610;-92
2022/06/04 02:00:51;;;;;;;7.83;5.50;;;20.40;94.20;;;20.89;61.06;98626.41;4883020;28;123752;-93
2022/06/04 02:03:50;;;;;;;5.47;4.93;;;20.40;94.20;;;20.87;60.95;98639.22;4872577;28;124446;-93
2022/06/04 02:06:31;;;;;;;5.27;4.77;;;20.40;94.20;;;20.86;61.12;98632.00;4871320;28;113976;-93
2022/06/04 02:09:11;;;;;;;5.63;5.00;;;20.30;94.20;;;20.83;60.89;98632.75;4856379;29;113086;-92
2022/06/04 02:11:49;;;;;;;5.20;4.63;;;20.30;94.20;;;20.82;61.14;98642.38;4870173;29;123808;-93
2022/06/04 02:17:59;;;;;;;6.40;4.80;;;20.30;94.30;;;20.71;61.50;98620.63;4873850;29;115774;-92
2022/06/04 02:20:26;;;;;;;5.27;4.83;;;20.20;94.30;;;20.72;61.37;98625.03;4869804;29;114479;-92
2022/06/04 02:22:54;;;;;;;5.17;4.67;;;20.20;94.30;;;20.72;60.88;98633.47;4872087;28;123975;-92
2022/06/04 02:25:22;;;;;;;5.37;4.87;;;20.20;94.40;;;20.73;61.32;98629.44;4893995;28;121608;-92
2022/06/04 02:28:47;;;;;;;5.70;5.10;;;20.20;94.40;;;20.71;60.99;98615.00;4879865;29;112760;-92
2022/06/04 02:31:56;;;;;;;6.70;5.67;;;20.20;94.40;;;20.67;61.49;98614.16;4880996;28;112916;-93
2022/06/04 02:34:34;;;;;;;5.47;4.90;;;20.10;94.40;;;20.68;61.43;98623.38;4871797;29;122888;-93
2022/06/04 02:37:46;;;;;;;5.10;4.40;;;20.10;94.80;;;20.65;61.60;98615.72;4869570;29;123925;-93
2022/06/04 02:41:11;;;;;;;5.10;4.60;;;20.10;94.50;;;20.64;61.32;98628.16;4871289;28;113354;-92
2022/06/04 02:44:07;;;;;;;4.53;4.13;;;20.10;94.50;;;20.61;61.55;98626.91;4865142;29;114826;-92
2022/06/04 02:46:45;;;;;;;5.60;5.10;;;20.10;94.60;;;20.62;61.64;98620.09;4846767;29;123835;-92
2022/06/04 02:49:41;;;;;;;5.80;4.80;;;20.10;94.60;;;20.59;61.48;98618.06;4850910;29;123684;-93
2022/06/04 02:56:47;;;;;;;4.97;4.50;;;20.10;94.60;;;20.54;61.41;98604.38;4875664;28;114367;-93
2022/06/04 02:59:17;;;;;;;4.90;4.50;;;20.00;94.60;;;20.55;61.64;98605.19;4873576;28;123966;-92
2022/06/04 03:02:04;;;;;;;4.87;4.47;;;20.00;94.60;;;20.54;61.55;98603.56;4874032;28;123031;-92
2022/06/04 03:04:53;;;;;;;5.30;4.80;;;20.00;94.60;;;20.52;61.55;98601.09;4867987;28;113574;-93
2022/06/04 03:07:22;;;;;;;19.17;4.53;;;20.00;94.60;;;20.54;61.55;98609.19;4888591;28;112689;-92
2022/06/04 03:13:34;;;;;;;5.03;4.50;;;20.00;94.70;;;20.49;61.69;98599.88;4874953;29;124242;-92
2022/06/04 03:16:01;;;;;;;5.20;4.70;;;20.00;94.70;;;20.49;61.37;98605.47;4872909;29;114884;-92
2022/06/04 03:19:07;;;;;;;6.00;4.30;;;19.90;94.70;;;20.47;61.45;98598.63;4871497;29;112745;-93
2022/06/04 03:21:55;;;;;;;4.63;4.13;;;20.00;94.70;;;20.48;61.80;98597.47;4877042;28;123696;-91
2022/06/04 03:24:42;;;;;;;4.73;4.27;;;19.90;94.60;;;20.47;61.56;98598.63;4857836;29;122895;-92
2022/06/04 03:27:09;;;;;;;5.47;4.63;;;19.90;94.70;;;20.48;61.59;98611.50;4855216;29;114086;-94
2022/06/04 03:33:37;;;;;;;4.50;4.10;;;19.90;94.70;;;20.44;61.35;98610.63;4881624;28;124842;-93
2022/06/04 03:36:42;;;;;;;4.67;4.27;;;19.90;94.70;;;20.40;61.48;98607.81;4879303;28;123297;-93
2022/06/04 03:42:52;;;;;;;7.10;5.50;;;19.90;94.80;;;20.33;61.90;98632.16;4879022;29;114516;-92
2022/06/04 03:45:18;;;;;;;7.17;5.00;;;19.80;94.80;;;20.30;61.92;98639.34;4874866;28;123368;-92
2022/06/04 03:47:45;;;;;;;5.53;4.93;;;19.80;94.80;;;20.30;61.92;98645.75;4878987;28;123007;-93
2022/06/04 03:50:32;;;;;;;4.17;3.77;;;19.80;94.90;;;20.32;61.74;98656.59;4878165;28;114616;-91
2022/06/04 03:52:58;;;;;;;4.17;3.87;;;19.80;94.90;;;20.34;62.04;98654.22;4894036;28;114950;-93
2022/06/04 03:55:25;;;;;;;4.70;4.20;;;19.80;94.90;;;20.38;61.69;98657.06;4893160;28;122030;-92
2022/06/04 03:58:30;;;;;;;4.57;3.37;;;19.80;95.00;;;20.39;61.84;98653.06;4873659;28;123733;-92
2022/06/04 04:00:58;;;;;;;4.10;3.70;;;19.80;95.00;;;20.42;61.82;98658.75;4875048;28;113992;-92
2022/06/04 04:03:26;;;;;;;4.20;3.73;;;19.80;95.00;;;20.48;61.64;98653.59;4871023;29;111655;-92
2022/06/04 04:05:55;;;;;;;3.50;3.20;;;19.90;95.10;;;20.55;61.76;98647.28;4882187;28;124096;-92
2022/06/04 04:08:25;;;;;;;3.87;3.47;;;19.90;95.10;;;20.57;61.56;98654.13;4888568;28;121993;-92
2022/06/04 04:10:52;;;;;;;3.50;3.20;;;20.00;95.10;;;20.59;61.53;98651.75;4889857;28;114700;-92
2022/06/04 04:13:39;;;;;;;4.20;3.80;;;20.00;95.10;;;20.59;61.50;98650.94;4875775;28;113362;-92
2022/06/04 04:16:09;;;;;;;5.30;3.80;;;20.00;95.00;;;20.59;61.38;98646.13;4887707;28;123654;-94
2022/06/04 04:18:36;;;;;;;4.90;3.80;;;20.00;95.00;;;20.61;61.48;98638.16;4881591;28;122877;-93
2022/06/04 04:21:40;;;;;;;5.43;4.03;;;20.00;95.00;;;20.60;61.61;98630.09;4827427;29;111784;-93
2022/06/04 04:24:07;;;;;;;4.90;4.13;;;20.10;95.00;;;20.60;61.59;98630.09;4851058;29;113667;-94
2022/06/04 04:30:54;;;;;;;4.80;4.40;;;20.00;95.00;;;20.47;61.83;98629.50;4853916;29;123920;-92
2022/06/04 04:33:24;;;;;;;4.40;4.00;;;20.00;95.10;;;20.47;62.11;98621.94;4847966;29;113991;-93
2022/06/04 04:36:46;;;;;;;3.90;3.53;;;20.00;95.20;;;20.46;61.96;98630.72;4847993;29;113755;-93
2022/06/04 04:39:14;;;;;;;4.07;3.50;;;19.90;95.10;;;20.49;62.18;98632.75;4837422;29;123934;-92
2022/06/04 04:45:25;;;;;;;3.90;3.57;;;20.00;95.30;;;20.58;61.77;98615.63;4847839;29;114086;-93
2022/06/04 04:51:34;;;;;;;4.40;3.97;;;20.00;95.30;;;20.68;61.69;98612.94;4845005;29;124470;-92
2022/06/04 04:54:39;;;;;;;4.63;4.13;;;20.10;95.30;;;20.72;61.94;98616.59;4845385;29;123632;-92
2022/06/04 04:57:07;;;;;;;4.40;4.00;;;20.10;95.30;;;20.77;62.03;98614.63;4846821;29;114665;-92
2022/06/04 04:59:34;;;;;;;4.37;3.80;;;20.20;95.40;;;20.81;61.68;98613.47;4875450;28;113515;-94
2022/06/04 05:02:00;;;;;;;8.00;3.77;;;20.20;95.30;;;20.86;61.60;98612.34;4865417;28;123034;-92
2022/06/04 05:04:47;;;;;;;4.90;4.10;;;20.30;95.40;;;20.88;61.63;98622.00;4869031;28;122524;-92
2022/06/04 05:07:13;;;;;;;3.93;3.53;;;20.30;95.30;;;20.89;61.69;98634.81;4882624;28;115489;-92
2022/06/04 05:09:41;;;;;;;4.97;4.47;;;20.30;95.30;;;20.88;61.48;98635.22;4871860;28;114283;-92
2022/06/04 05:12:11;;;;;;;4.50;4.00;;;20.30;95.30;;;20.90;61.86;98638.44;4889420;28;123437;-93
2022/06/04 05:14:39;;;;;;;4.53;4.13;;;20.30;95.20;;;20.92;61.50;98658.53;4874470;28;123662;-93
2022/06/04 05:17:44;;;;;;;6.80;3.87;;;20.30;95.20;;;20.95;61.65;98660.56;4894057;28;113124;-93
2022/06/04 05:20:12;;;;;;;4.30;3.90;;;20.40;95.20;;;21.00;61.78;98662.22;4888882;28;114102;-92
2022/06/04 05:22:38;;;;;;;4.17;3.40;;;20.40;95.30;;;21.04;61.62;98661.06;4872573;28;124453;-92
2022/06/04 05:25:06;;;;;;;4.73;3.93;;;20.40;95.20;;;21.08;61.36;98661.91;4882472;28;123617;-94
2022/06/04 05:27:52;;;;;;;4.63;3.83;;;20.50;95.20;;;21.12;61.32;98659.94;4884853;28;113164;-93
2022/06/04 05:30:56;;;;;;;4.03;3.73;;;20.50;95.20;;;21.13;61.50;98669.97;4884085;28;113703;-93
2022/06/04 05:33:42;;;;;;;4.40;4.10;;;20.50;95.20;;;21.16;61.62;98683.25;4879206;28;124192;-92
2022/06/04 05:36:10;;;;;;;4.33;3.93;;;20.60;95.30;;;21.15;61.51;98678.84;4879206;28;123254;-93
2022/06/04 05:38:38;;;;;;;4.17;3.77;;;20.60;95.30;;;21.16;61.54;98668.41;4865069;28;113720;-93
2022/06/04 05:41:13;;;;;;;3.87;3.50;;;20.60;95.30;;;21.20;61.72;98674.88;4861277;28;113154;-93
2022/06/04 05:44:17;;;;;;;4.80;4.30;;;20.60;95.30;;;21.17;61.50;98687.69;4880017;28;123538;-93
2022/06/04 05:46:44;;;;;;;4.40;4.00;;;20.60;95.40;;;21.17;61.35;98682.06;4856131;28;123145;-95
2022/06/04 05:49:49;;;;;;;4.20;3.80;;;20.60;95.40;;;21.15;61.78;98687.25;4856511;29;113738;-92
2022/06/04 05:52:15;;;;;;;4.43;4.03;;;20.60;95.40;;;21.19;61.55;98695.72;4878958;28;113353;-93
2022/06/04 05:54:43;;;;;;;3.70;3.40;;;20.60;95.40;;;21.22;61.75;98694.94;4890269;28;123008;-93
2022/06/04 05:57:10;;;;;;;5.40;4.23;;;20.60;95.40;;;21.26;61.37;98692.19;4880910;28;124570;-93
2022/06/04 05:59:38;;;;;;;4.43;3.77;;;20.60;95.40;;;21.29;61.44;98705.47;4889398;28;114475;-93
2022/06/04 06:02:09;;;;;;;4.20;3.63;;;20.60;95.30;;;21.33;61.46;98734.41;4877182;28;114425;-91
2022/06/04 06:04:37;;;;;;;3.57;3.23;;;20.70;95.40;;;21.35;61.50;98746.06;4856463;28;123071;-92
2022/06/04 06:07:03;;;;;;;4.37;3.97;;;20.70;95.30;;;21.36;61.13;98744.88;4872159;28;122203;-93
2022/06/04 06:09:32;;;;;;;4.07;3.70;;;20.70;95.30;;;21.35;61.55;98757.31;4858283;28;114425;-93
2022/06/04 06:11:58;;;;;;;4.90;4.10;;;20.70;95.20;;;21.34;61.05;98772.56;4859341;28;113242;-92
2022/06/04 06:14:27;;;;;;;4.20;3.47;;;20.70;95.10;;;21.32;61.26;98786.19;4859684;28;123134;-91
2022/06/04 06:16:54;;;;;;;3.70;3.40;;;20.70;95.10;;;21.28;60.66;98796.56;4860829;28;124200;-92
2022/06/04 06:19:22;;;;;;;4.20;3.80;;;20.70;95.30;;;21.23;60.86;98814.59;4861335;28;114001;-93
2022/06/04 06:21:49;;;;;;;4.40;4.00;;;20.70;94.90;;;21.18;61.48;98821.38;4851080;29;112257;-92
2022/06/04 06:24:34;;;;;;;6.47;4.90;;;20.60;95.00;;;21.06;61.98;98813.19;4845395;28;124451;-92
2022/06/04 06:27:02;;;;;;;5.80;3.87;;;20.60;95.20;;;20.97;62.38;98818.28;4858132;28;123716;-92
2022/06/04 06:29:31;;;;;;;5.70;4.30;;;20.50;95.50;;;20.90;62.77;98826.63;4873083;28;113371;-93
2022/06/04 06:32:00;;;;;;;4.00;3.60;;;20.50;95.70;;;20.81;63.03;98831.72;4865289;28;113447;-92
2022/06/04 06:34:29;;;;;;;4.93;4.43;;;20.40;95.80;;;20.72;63.38;98838.44;4862088;28;123269;-93
2022/06/04 06:36:58;;;;;;;5.20;4.07;;;20.30;96.10;;;20.66;63.80;98831.53;4864987;28;123122;-93
2022/06/04 06:39:26;;;;;;;3.97;3.57;;;20.30;96.20;;;20.66;63.94;98830.69;4856835;29;113571;-93
2022/06/04 06:42:11;;;;;;;3.47;3.17;;;20.30;96.30;;;20.67;63.77;98829.53;4860110;28;113726;-93
2022/06/04 06:44:58;;;;;;;3.73;3.27;;;20.30;96.40;;;20.71;63.81;98816.31;4855111;28;122089;-93
2022/06/04 06:47:24;;;;;;;3.00;2.80;;;20.30;96.50;;;20.77;64.36;98783.94;4857486;29;123719;-92
2022/06/04 06:50:13;;;;;;;4.10;2.93;;;20.30;96.70;;;20.82;63.85;98755.53;4863229;28;113173;-92
2022/06/04 06:52:41;;;;;;;3.57;2.90;;;20.30;96.80;;;20.89;64.32;98754.78;4846042;29;113334;-92
2022/06/04 06:55:08;;;;;;;3.60;3.30;;;20.30;96.90;;;20.96;63.97;98758.50;4856663;28;122564;-93
2022/06/04 06:57:36;;;;;;;2.90;2.60;;;20.40;97.00;;;21.02;64.07;98750.53;4847919;28;124544;-92
2022/06/04 07:00:04;;;;;;;3.60;2.87;;;20.40;97.10;;;21.08;64.00;98731.34;4843046;29;112963;-93
2022/06/04 07:02:32;;;;;;;3.33;3.03;;;20.50;97.20;;;21.14;64.28;98729.78;4860944;28;113356;-93
2022/06/04 07:04:58;;;;;;;3.57;3.10;;;20.50;97.30;;;21.17;64.36;98717.78;4860855;28;123504;-92
2022/06/04 07:07:25;;;;;;;3.20;3.00;;;20.60;97.40;;;21.22;64.44;98705.38;4857824;29;124146;-91
2022/06/04 07:09:51;;;;;;;3.43;3.13;;;20.60;97.40;;;21.23;64.16;98701.41;4869657;28;114673;-92
2022/06/04 07:12:37;;;;;;;5.33;3.60;;;20.60;97.50;;;21.23;64.85;98710.63;4864720;28;113241;-92
2022/06/04 07:15:06;;;;;;;5.00;3.63;;;20.60;97.70;;;21.24;64.94;98725.47;4853417;28;123978;-94
2022/06/04 07:17:33;;;;;;;4.00;3.60;;;20.60;97.80;;;21.24;64.57;98739.53;4860773;28;123783;-92
2022/06/04 07:19:59;;;;;;;6.90;4.10;;;20.60;97.80;;;21.27;64.84;98741.56;4865659;28;113185;-92
2022/06/04 07:22:48;;;;;;;3.70;3.40;;;20.70;97.90;;;21.25;64.82;98749.56;4866078;28;113059;-92
2022/06/04 07:25:16;;;;;;;3.47;3.17;;;20.70;97.90;;;21.29;64.90;98751.22;4868247;28;123666;-92
2022/06/04 07:27:45;;;;;;;4.13;2.93;;;20.70;98.00;;;21.32;64.56;98760.91;4843222;29;122887;-93
2022/06/04 07:30:11;;;;;;;4.33;3.13;;;20.70;97.90;;;21.38;64.82;98767.81;4833548;29;113603;-93
2022/06/04 07:32:38;;;;;;;3.37;3.03;;;20.80;98.00;;;21.48;64.89;98767.13;4842540;28;111987;-92
2022/06/04 07:35:05;;;;;;;4.00;3.60;;;20.80;98.10;;;21.56;64.94;98765.19;4843072;29;123267;-92
2022/06/04 07:37:32;;;;;;;5.77;3.97;;;20.90;98.20;;;21.61;64.90;98760.00;4858953;28;121859;-92
2022/06/04 07:39:58;;;;;;;4.53;4.13;;;20.90;98.30;;;21.65;64.68;98756.41;4857966;28;114392;-93
2022/06/04 07:42:27;;;;;;;8.40;5.33;;;21.00;98.30;;;21.66;65.15;98741.97;4842890;28;112713;-92
2022/06/04 07:44:55;;;;;;;7.30;4.93;;;21.00;98.70;;;21.65;65.16;98747.97;4864053;28;124338;-93
2022/06/04 07:47:21;;;;;;;9.43;5.20;;;21.00;98.50;;;21.68;65.32;98747.19;4840615;29;122922;-92
2022/06/04 07:49:48;;;;;;;5.03;4.60;;;21.10;98.50;;;21.71;65.08;98735.19;4854223;28;113023;-92
2022/06/04 07:52:15;;;;;;;4.17;3.73;;;21.10;98.60;;;21.76;65.12;98734.81;4854827;29;112987;-92
2022/06/04 07:54:42;;;;;;;4.67;4.27;;;21.10;98.60;;;21.81;65.27;98726.03;4823146;29;123702;-93
2022/06/04 07:57:09;;;;;;;4.00;3.60;;;21.20;98.60;;;21.88;64.86;98737.34;4851404;28;122733;-91
2022/06/04 07:59:36;;;;;;;4.37;3.57;;;21.20;98.50;;;21.94;64.78;98735.78;4829253;29;113381;-93
2022/06/04 08:02:03;;;;;;;4.83;4.43;;;21.30;98.60;;;22.01;65.18;98729.41;4835692;29;113767;-92
2022/06/04 08:04:29;;;;;;;5.37;4.87;;;21.30;98.70;;;22.05;64.68;98735.84;4844796;29;122126;-94
2022/06/04 08:06:57;;;;;;;5.20;4.70;;;21.40;98.70;;;22.08;64.67;98742.69;4857035;28;121728;-92
2022/06/04 08:09:24;;;;;;;10.07;7.47;;;21.40;98.60;;;22.05;65.17;98741.47;4863467;28;112327;-94
2022/06/04 08:11:50;;;;;;;7.40;5.60;;;21.40;98.70;;;21.99;64.87;98749.47;4858764;28;113002;-93
2022/06/04 08:14:23;;;;;;;5.83;5.23;;;21.40;98.60;;;21.99;65.21;98743.84;4858689;28;122287;-92
2022/06/04 08:16:58;;;;;;;4.90;4.50;;;21.40;98.60;;;22.03;64.83;98758.75;4857993;28;121829;-93
2022/06/04 08:19:28;;;;;;;5.03;4.20;;;21.50;98.70;;;22.11;64.72;98755.97;4858823;28;112293;-94
2022/06/04 08:21:58;;;;;;;4.80;4.00;;;21.50;98.70;;;22.18;64.97;98758.84;4860071;28;96831;-93
2022/06/04 08:24:47;;;;;;;4.50;3.80;;;21.60;98.70;;;22.27;64.72;98776.22;4857645;28;123299;-94
2022/06/04 08:27:13;;;;;;;6.37;4.97;;;21.70;98.80;;;22.33;64.34;98780.31;4857732;28;122911;-92
2022/06/04 08:29:40;;;;;;;5.73;5.10;;;21.70;98.60;;;22.40;64.56;98791.59;4842430;28;113296;-94
2022/06/04 08:32:08;;;;;;;4.87;4.47;;;21.80;98.60;;;22.47;64.66;98788.84;4841177;28;116903;-93
2022/06/04 08:34:36;;;;;;;4.60;4.30;;;21.80;98.60;;;22.56;64.63;98787.69;4862288;28;124245;-94
2022/06/04 08:37:06;;;;;;;5.63;5.13;;;21.90;98.60;;;22.62;64.21;98783.28;4846768;28;121788;-94
2022/06/04 08:39:33;;;;;;;6.10;5.30;;;22.00;98.50;;;22.62;63.97;98777.66;4867947;28;113320;-93
2022/06/04 08:42:09;;;;;;;4.43;4.03;;;22.00;98.30;;;22.65;64.01;98751.53;4842697;29;112604;-94
2022/06/04 08:44:53;;;;;;;4.60;4.20;;;22.10;98.30;;;22.70;63.72;98762.41;4853999;28;123428;-94
2022/06/04 08:47:36;;;;;;;4.60;3.70;;;22.10;98.20;;;22.81;63.59;98757.66;4860577;28;122763;-93
2022/06/04 08:50:08;;;;;;;5.63;5.10;;;22.20;98.50;;;22.89;63.42;98753.66;4835360;29;112961;-93
2022/06/04 08:52:50;;;;;;;4.67;4.17;;;22.20;98.10;;;22.98;63.22;98750.50;4877912;28;113018;-93
2022/06/04 08:58:44;;;;;;;6.17;4.50;;;22.40;97.90;;;23.15;62.98;98757.38;4849325;28;123669;-93
2022/06/04 09:01:45;;;;;;;5.00;4.57;;;22.50;97.90;;;23.26;62.59;98768.69;4879905;28;112844;-93
2022/06/04 09:04:42;;;;;;;4.30;3.90;;;22.60;97.80;;;23.37;62.48;98770.34;4864939;28;113486;-93
2022/06/04 09:07:18;;;;;;;4.30;3.90;;;22.70;97.70;;;23.47;62.36;98763.09;4859198;28;123445;-94
2022/06/04 09:10:17;;;;;;;5.70;5.00;;;22.70;97.50;;;23.53;61.89;98766.34;4868087;28;122125;-95
2022/06/04 09:13:23;;;;;;;4.73;4.33;;;22.90;97.30;;;23.59;61.95;98757.09;4865535;29;114153;-93
2022/06/04 09:15:57;;;;;;;5.93;4.83;;;22.90;97.10;;;23.70;61.50;98759.91;4826639;29;113106;-95
2022/06/04 09:18:31;;;;;;;9.27;5.33;;;23.00;97.10;;;23.76;61.50;98769.63;4807505;29;122783;-94
2022/06/04 09:21:18;;;;;;;4.83;4.33;;;23.10;96.90;;;23.85;61.12;98777.69;4820136;29;124263;-93
2022/06/04 09:23:48;;;;;;;6.80;5.10;;;23.20;96.80;;;23.93;60.69;98775.66;4798090;29;115320;-94
2022/06/04 09:26:28;;;;;;;5.00;4.50;;;23.30;96.60;;;24.01;60.64;98763.97;4819818;29;114469;-94
2022/06/04 09:29:32;;;;;;;4.97;4.47;;;23.30;96.40;;;24.11;60.46;98772.84;4823905;29;124313;-94
2022/06/04 09:32:44;;;;;;;13.83;6.93;;;23.40;96.40;;;24.22;60.34;98774.44;4825049;29;124315;-94
2022/06/04 09:35:17;;;;;;;9.03;6.83;;;23.60;96.30;;;24.33;59.97;98779.28;4826569;29;113948;-94
2022/06/04 09:38:05;;;;;;;9.10;6.77;;;23.70;96.20;;;24.41;59.95;98786.53;4823408;29;113818;-95
2022/06/04 09:40:34;;;;;;;6.33;5.67;;;23.70;96.10;;;24.50;59.78;98786.13;4813935;29;123776;-94
2022/06/04 09:43:20;;;;;;;9.67;8.77;;;23.80;96.00;;;24.52;59.28;98781.69;4808401;29;123530;-94
2022/06/04 09:46:06;;;;;;;10.70;6.00;;;23.90;95.70;;;24.49;59.43;98785.31;4822419;29;113427;-94
2022/06/04 09:48:47;;;;;;;5.83;5.23;;;23.90;95.50;;;24.50;59.45;98784.09;4804322;29;114075;-94
2022/06/04 09:51:22;;;;;;;7.77;7.00;;;23.90;95.50;;;24.50;59.45;98792.56;4819906;29;123289;-94
2022/06/04 09:54:04;;;;;;;5.93;5.43;;;24.00;95.40;;;24.49;59.45;98802.28;4861316;29;121604;-95
2022/06/04 10:00:28;;;;;;;7.23;5.40;;;24.00;95.30;;;24.52;59.06;98811.97;4869012;29;114444;-95
2022/06/04 10:03:01;;;;;;;6.80;5.53;;;24.00;95.20;;;24.55;59.37;98814.75;4870243;29;123775;-94
2022/06/04 10:05:32;;;;;;;8.40;7.40;;;24.00;95.20;;;24.56;59.02;98821.25;4857069;29;122364;-95
2022/06/04 10:08:01;;;;;;;7.57;6.70;;;23.80;95.00;;;24.55;59.17;98819.63;4883222;28;115056;-94
2022/06/04 10:10:44;;;;;;;5.30;4.90;;;24.10;95.10;;;24.56;58.90;98824.88;4879365;28;115123;-92
2022/06/04 10:20:39;;;;;;;8.10;6.60;;;24.00;94.80;;;24.48;58.98;98848.69;4894656;28;115689;-95
2022/06/04 10:27:03;;;;;;;6.03;5.43;;;24.00;94.80;;;24.42;58.70;98850.25;4890665;28;125134;-93
2022/06/04 10:30:12;;;;;;;5.53;4.70;;;24.00;94.70;;;24.36;58.66;98847.03;4878642;28;124524;-96
2022/06/04 10:33:03;;;;;;;6.63;6.00;;;24.00;94.50;;;24.35;58.76;98839.00;4888538;28;114863;-93
2022/06/04 10:36:22;;;;;;;6.17;5.57;;;24.00;94.50;;;24.33;58.85;98847.06;4878512;28;113615;-93
2022/06/04 10:38:58;;;;;;;7.50;6.20;;;23.90;94.60;;;24.30;59.02;98853.50;4847280;28;123543;-94
2022/06/04 10:41:45;;;;;;;6.43;5.83;;;23.90;94.70;;;24.25;59.09;98841.41;4879640;28;123926;-92
2022/06/04 10:44:44;;;;;;;7.83;7.07;;;23.80;94.60;;;24.19;58.67;98847.88;4892686;28;114832;-96
2022/06/04 10:47:35;;;;;;;5.60;5.10;;;23.80;94.40;;;24.15;58.49;98842.22;4854193;28;113901;-95
2022/06/04 10:50:14;;;;;;;7.60;6.17;;;23.80;94.20;;;24.10;57.89;98845.44;4866775;28;123648;-93
2022/06/04 10:53:05;;;;;;;6.37;5.50;;;23.70;93.90;;;24.04;58.06;98861.16;4876698;28;123031;-94
2022/06/04 10:55:55;;;;;;;6.63;5.17;;;23.60;93.80;;;23.97;58.24;98869.63;4860764;28;113135;-95
2022/06/04 10:58:47;;;;;;;4.87;4.30;;;23.60;94.00;;;24.00;58.14;98874.47;4861109;28;113950;-95
2022/06/04 11:01:31;;;;;;;4.77;4.33;;;23.60;94.00;;;24.02;58.39;98880.53;4876067;28;123253;-95
2022/06/04 11:04:56;;;;;;;6.40;5.80;;;23.60;94.00;;;24.01;58.25;98884.53;4878190;28;124128;-94
2022/06/04 11:07:53;;;;;;;7.07;6.07;;;23.60;94.00;;;23.93;58.20;98880.09;4867214;28;113100;-95
2022/06/04 11:14:41;;;;;;;12.53;8.10;;;23.50;94.00;;;23.83;58.91;98869.59;4886211;28;124500;-95
2022/06/04 11:18:05;;;;;;;10.27;9.17;;;23.40;94.10;;;23.75;59.01;98865.94;4867899;28;123615;-94
2022/06/04 11:21:12;;;;;;;8.47;7.70;;;23.40;94.30;;;23.68;59.35;98860.25;4883750;28;115942;-94
2022/06/04 11:24:03;;;;;;;8.63;7.67;;;23.30;94.40;;;23.67;59.14;98873.56;4895426;28;114472;-94
2022/06/04 11:27:09;;;;;;;11.23;8.90;;;23.30;94.40;;;23.67;59.18;98870.75;4877116;28;123722;-95
2022/06/04 11:29:41;;;;;;;8.40;7.60;;;23.30;94.60;;;23.64;59.54;98868.69;4879990;28;123541;-94
2022/06/04 11:32:49;;;;;;;9.27;8.37;;;23.20;94.60;;;23.62;59.43;98867.50;4863212;28;112373;-94
2022/06/04 11:35:26;;;;;;;9.13;8.27;;;23.20;94.60;;;23.62;59.58;98875.97;4875375;28;113996;-95
2022/06/04 11:38:22;;;;;;;9.43;8.50;;;23.20;94.70;;;23.61;59.68;98875.13;4861937;28;124016;-94
2022/06/04 11:41:17;;;;;;;8.40;7.60;;;23.20;94.80;;;23.54;59.78;98880.78;4857073;28;122803;-95
2022/06/04 11:44:23;;;;;;;7.37;6.67;;;23.10;94.80;;;23.54;59.94;98881.59;4864613;28;113304;-94
2022/06/04 11:47:27;;;;;;;8.27;7.47;;;23.10;94.90;;;23.60;59.80;98887.63;4875469;28;113815;-94
2022/06/04 11:50:10;;;;;;;9.07;7.90;;;23.10;94.90;;;23.63;59.82;98883.22;4862121;28;124238;-94
2022/06/04 11:52:48;;;;;;;8.73;7.83;;;23.20;95.00;;;23.64;59.64;98876.34;4860288;28;123685;-94
2022/06/04 11:55:37;;;;;;;11.33;9.60;;;23.20;95.00;;;23.61;59.75;98875.13;4880182;28;114899;-95
2022/06/04 11:58:27;;;;;;;10.23;9.23;;;23.20;95.10;;;23.57;59.99;98863.06;4877652;28;113319;-93
2022/06/04 12:01:02;;;;;;;10.90;9.80;;;23.10;95.10;;;23.57;60.05;98861.03;4880225;28;123857;-94
2022/06/04 12:03:39;;;;;;;10.00;8.87;;;23.10;95.20;;;23.63;60.14;98861.44;4855139;28;123328;-93
2022/06/04 12:06:31;;;;;;;9.80;7.80;;;23.10;95.30;;;23.71;60.10;98857.47;4883469;28;114782;-94
2022/06/04 12:10:00;;;;;;;9.27;8.00;;;23.20;95.30;;;23.80;59.79;98857.91;4864097;28;113111;-94
2022/06/04 12:12:45;;;;;;;10.87;7.23;;;23.30;95.30;;;23.91;59.77;98866.41;4855520;28;122297;-93